createdAt,value
2019-05-11T00:01:09.435Z,98233.53
2019-05-11T00:03:38.177Z,98233.53
2019-05-11T00:06:06.909Z,98237.38
2019-05-11T00:08:35.657Z,98237.38
2019-05-11T00:11:04.477Z,98230.44
2019-05-11T00:13:33.197Z,98219.20
2019-05-11T00:16:02.013Z,98218.66
2019-05-11T00:18:30.748Z,98199.34
2019-05-11T00:20:59.802Z,98199.34
2019-05-11T00:23:28.509Z,98204.81
2019-05-11T00:25:57.247Z,98204.80
2019-05-11T00:28:25.957Z,98200.32
2019-05-11T00:30:54.682Z,98193.67
2019-05-11T00:33:23.424Z,98188.98
2019-05-11T00:35:52.291Z,98188.98
2019-05-11T00:38:21.021Z,98181.73
2019-05-11T00:40:49.759Z,98177.56
2019-05-11T00:43:18.539Z,98179.21
2019-05-11T00:45:47.492Z,98178.29
2019-05-11T00:48:16.206Z,98167.67
2019-05-11T00:50:45.007Z,98162.27
2019-05-11T00:53:13.741Z,98162.27
2019-05-11T00:55:42.494Z,98162.98
2019-05-11T00:58:11.181Z,98157.52
2019-05-11T01:00:39.989Z,98157.52
2019-05-11T01:03:08.803Z,98151.08
2019-05-11T01:05:37.541Z,98153.94
2019-05-11T01:08:06.735Z,98140.52
2019-05-11T01:10:42.094Z,98141.48
2019-05-11T01:13:06.065Z,98123.81
2019-05-11T01:15:34.783Z,98123.81
2019-05-11T01:18:03.565Z,98146.39
2019-05-11T01:20:32.262Z,98157.03
2019-05-11T01:23:01.057Z,98149.55
2019-05-11T01:25:29.826Z,98149.55
2019-05-11T01:27:58.720Z,98150.46
2019-05-11T01:30:27.442Z,98153.52
2019-05-11T01:32:56.169Z,98154.73
2019-05-11T01:35:24.951Z,98154.73
2019-05-11T01:37:53.686Z,98159.60
2019-05-11T01:40:22.561Z,98155.90
2019-05-11T01:42:51.311Z,98164.28
2019-05-11T01:45:20.044Z,98155.06
2019-05-11T01:47:48.789Z,98150.93
2019-05-11T01:50:17.594Z,98144.70
2019-05-11T01:52:46.339Z,98131.91
2019-05-11T01:55:15.062Z,98131.91
2019-05-11T01:57:43.823Z,98139.33
2019-05-11T02:00:12.802Z,98137.52
2019-05-11T02:02:41.576Z,98140.09
2019-05-11T02:05:41.887Z,98139.38
2019-05-11T02:08:10.699Z,98139.38
2019-05-11T02:10:39.463Z,98141.50
2019-05-11T02:13:08.239Z,98145.83
2019-05-11T02:15:37.021Z,98141.75
2019-05-11T02:18:05.878Z,98125.55
2019-05-11T02:20:34.665Z,98128.07
2019-05-11T02:23:03.427Z,98138.41
2019-05-11T02:25:32.519Z,98137.70
2019-05-11T02:28:01.269Z,98131.55
2019-05-11T02:30:30.013Z,98128.06
2019-05-11T02:32:58.836Z,98122.11
2019-05-11T02:35:27.562Z,98121.20
2019-05-11T02:37:56.305Z,98119.11
2019-05-11T02:40:25.476Z,98115.47
2019-05-11T02:42:54.615Z,98115.47
2019-05-11T02:45:37.358Z,98112.76
2019-05-11T02:48:06.418Z,98114.08
2019-05-11T02:50:36.680Z,98112.47
2019-05-11T02:53:05.620Z,98094.27
2019-05-11T02:55:35.605Z,98094.27
2019-05-11T02:58:05.108Z,98102.47
2019-05-11T03:00:39.936Z,98100.30
2019-05-11T03:03:08.874Z,98095.47
2019-05-11T03:05:37.759Z,98095.47
2019-05-11T03:08:06.654Z,98095.47
2019-05-11T03:10:35.468Z,98095.67
2019-05-11T03:13:04.532Z,98091.83
2019-05-11T03:15:33.333Z,98092.47
2019-05-11T03:18:02.067Z,98092.47
2019-05-11T03:20:31.427Z,98091.48
2019-05-11T03:23:00.271Z,98086.73
2019-05-11T03:25:29.024Z,98086.73
2019-05-11T03:27:57.747Z,98088.91
2019-05-11T03:30:26.589Z,98076.80
2019-05-11T03:32:55.307Z,98067.49
2019-05-11T03:35:24.155Z,98067.49
2019-05-11T03:37:52.881Z,98081.36
2019-05-11T03:40:21.795Z,98081.36
2019-05-11T03:42:50.512Z,98080.14
2019-05-11T03:45:19.392Z,98080.87
2019-05-11T03:47:48.126Z,98084.49
2019-05-11T03:50:17.295Z,98082.81
2019-05-11T03:52:46.189Z,98082.81
2019-05-11T03:55:15.593Z,98085.34
2019-05-11T03:57:44.389Z,98079.89
2019-05-11T04:00:13.871Z,98080.94
2019-05-11T04:02:42.677Z,98080.94
2019-05-11T04:05:11.492Z,98083.59
2019-05-11T04:07:40.278Z,98093.38
2019-05-11T04:10:09.645Z,98090.37
2019-05-11T04:12:38.368Z,98090.85
2019-05-11T04:15:07.831Z,98075.11
2019-05-11T04:17:36.561Z,98082.69
2019-05-11T04:20:05.842Z,98088.20
2019-05-11T04:22:34.652Z,98092.19
2019-05-11T04:25:03.517Z,98089.67
2019-05-11T04:27:32.229Z,98086.52
2019-05-11T04:30:00.995Z,98099.27
2019-05-11T04:32:29.719Z,98103.37
2019-05-11T04:34:58.472Z,98102.59
2019-05-11T04:37:27.220Z,98095.31
2019-05-11T04:39:55.943Z,98095.31
2019-05-11T04:42:24.667Z,98099.66
2019-05-11T04:44:53.558Z,98092.72
2019-05-11T04:47:22.282Z,98105.86
2019-05-11T04:49:51.113Z,98103.75
2019-05-11T04:52:19.956Z,98099.77
2019-05-11T04:54:48.705Z,98108.38
2019-05-11T04:57:17.546Z,98108.63
2019-05-11T04:59:46.279Z,98105.92
2019-05-11T05:02:15.149Z,98102.13
2019-05-11T05:04:43.877Z,98100.45
2019-05-11T05:07:12.827Z,98106.75
2019-05-11T05:09:44.561Z,98099.67
2019-05-11T05:12:14.083Z,98089.16
2019-05-11T05:14:43.038Z,98092.47
2019-05-11T05:17:11.755Z,98083.35
2019-05-11T05:19:40.487Z,98088.73
2019-05-11T05:22:09.539Z,98088.73
2019-05-11T05:24:38.511Z,98078.08
2019-05-11T05:27:07.341Z,98078.08
2019-05-11T05:29:36.083Z,98089.35
2019-05-11T05:32:04.821Z,98085.83
2019-05-11T05:34:33.549Z,98085.83
2019-05-11T05:37:02.361Z,98087.44
2019-05-11T05:39:31.078Z,98083.64
2019-05-11T05:41:59.911Z,98080.63
2019-05-11T05:44:28.706Z,98095.56
2019-05-11T05:46:57.563Z,98095.56
2019-05-11T05:49:26.289Z,98090.34
2019-05-11T05:51:58.200Z,98090.34
2019-05-11T05:54:25.499Z,98094.02
2019-05-11T05:56:54.335Z,98094.02
2019-05-11T05:59:23.133Z,98092.08
2019-05-11T06:01:51.879Z,98081.78
2019-05-11T06:04:20.677Z,98086.42
2019-05-11T06:06:49.633Z,98084.17
2019-05-11T06:09:18.357Z,98087.37
2019-05-11T06:11:47.169Z,98084.86
2019-05-11T06:14:15.898Z,98079.44
2019-05-11T06:16:44.665Z,98079.44
2019-05-11T06:19:13.401Z,98080.69
2019-05-11T06:21:42.143Z,98077.19
2019-05-11T06:24:10.881Z,98074.77
2019-05-11T06:26:39.659Z,98077.55
2019-05-11T06:29:08.466Z,98070.31
2019-05-11T06:31:37.504Z,98073.92
2019-05-11T06:34:06.586Z,98069.02
2019-05-11T06:36:35.351Z,98074.98
2019-05-11T06:39:07.441Z,98075.95
2019-05-11T06:41:36.672Z,98071.45
2019-05-11T06:44:06.028Z,98072.44
2019-05-11T06:46:35.244Z,98074.01
2019-05-11T06:49:04.120Z,98078.45
2019-05-11T06:51:32.940Z,98074.77
2019-05-11T06:54:01.651Z,98068.80
2019-05-11T06:56:30.392Z,98065.70
2019-05-11T06:58:59.136Z,98081.66
2019-05-11T07:01:27.976Z,98065.73
2019-05-11T07:03:56.994Z,98074.18
2019-05-11T07:06:30.099Z,98081.30
2019-05-11T07:08:56.689Z,98076.31
2019-05-11T07:11:25.785Z,98077.46
2019-05-11T07:13:54.592Z,98078.30
2019-05-11T07:16:23.747Z,98081.50
2019-05-11T07:18:52.487Z,98072.61
2019-05-11T07:21:21.331Z,98076.11
2019-05-11T07:23:50.271Z,98079.64
2019-05-11T07:26:19.301Z,98080.14
2019-05-11T07:28:48.104Z,98080.14
2019-05-11T07:31:16.929Z,98078.56
2019-05-11T07:33:45.765Z,98077.09
2019-05-11T07:36:14.614Z,98074.25
2019-05-11T07:38:43.370Z,98072.23
2019-05-11T07:41:12.168Z,98068.65
2019-05-11T07:43:40.910Z,98068.65
2019-05-11T07:46:09.770Z,98070.24
2019-05-11T07:48:38.890Z,98070.24
2019-05-11T07:51:08.920Z,98072.94
2019-05-11T07:53:38.191Z,98071.34
2019-05-11T07:56:08.275Z,98070.52
2019-05-11T07:58:38.694Z,98068.48
2019-05-11T08:01:08.717Z,98071.27
2019-05-11T08:03:39.499Z,98066.59
2019-05-11T08:06:08.932Z,98071.15
2019-05-11T08:11:18.398Z,98072.33
2019-05-11T08:13:48.085Z,98074.82
2019-05-11T08:16:18.534Z,98073.75
2019-05-11T08:18:48.286Z,98078.91
2019-05-11T08:21:17.992Z,98076.23
2019-05-11T08:23:48.374Z,98078.53
2019-05-11T08:26:20.139Z,98078.05
2019-05-11T08:28:48.933Z,98080.39
2019-05-11T08:31:20.403Z,98080.13
2019-05-11T08:33:54.143Z,98081.62
2019-05-11T08:36:28.859Z,98091.39
2019-05-11T08:39:08.366Z,98090.20
2019-05-11T08:41:38.716Z,98090.25
2019-05-11T08:44:09.970Z,98091.89
2019-05-11T08:46:40.106Z,98086.53
2019-05-11T08:49:19.019Z,98086.59
2019-05-11T08:51:49.215Z,98083.23
2019-05-11T08:54:38.204Z,98086.14
2019-05-11T08:57:08.167Z,98078.58
2019-05-11T08:59:39.297Z,98072.24
2019-05-11T09:02:08.212Z,98077.23
2019-05-11T09:04:48.423Z,98081.73
2019-05-11T09:07:39.887Z,98082.84
2019-05-11T09:10:13.212Z,98083.23
2019-05-11T09:12:49.080Z,98085.52
2019-05-11T09:15:33.705Z,98079.41
2019-05-11T09:17:57.648Z,98076.31
2019-05-11T09:20:28.697Z,98077.16
2019-05-11T09:23:00.040Z,98086.98
2019-05-11T09:25:32.416Z,98090.34
2019-05-11T09:28:05.015Z,98095.67
2019-05-11T09:30:34.240Z,98086.97
2019-05-11T09:33:03.327Z,98088.72
2019-05-11T09:35:47.556Z,98089.34
2019-05-11T09:38:09.141Z,98091.92
2019-05-11T09:40:52.097Z,98096.86
2019-05-11T09:43:30.806Z,98094.08
2019-05-11T09:46:08.496Z,98099.25
2019-05-11T09:48:48.690Z,98102.59
2019-05-11T09:51:35.260Z,98099.35
2019-05-11T09:54:20.494Z,98104.59
2019-05-11T09:56:52.331Z,98100.66
2019-05-11T09:59:28.183Z,98101.02
2019-05-11T10:02:01.813Z,98101.28
2019-05-11T10:04:38.113Z,98102.19
2019-05-11T10:07:13.971Z,98107.62
2019-05-11T10:09:47.877Z,98106.41
2019-05-11T10:12:19.758Z,98106.84
2019-05-11T10:14:58.962Z,98113.78
2019-05-11T10:17:38.309Z,98114.27
2019-05-11T10:20:18.269Z,98120.16
2019-05-11T10:22:51.900Z,98113.54
2019-05-11T10:25:23.463Z,98116.29
2019-05-11T10:27:57.929Z,98122.95
2019-05-11T10:30:32.467Z,98119.94
2019-05-11T10:33:13.400Z,98121.53
2019-05-11T10:35:53.192Z,98134.39
2019-05-11T10:38:25.034Z,98133.66
2019-05-11T10:41:00.541Z,98130.66
2019-05-11T10:43:38.962Z,98135.43
2019-05-11T10:46:23.080Z,98139.02
2019-05-11T10:48:54.894Z,98135.55
2019-05-11T10:51:29.729Z,98137.91
2019-05-11T10:54:08.583Z,98141.57
2019-05-11T10:56:31.963Z,98141.24
2019-05-11T10:59:00.814Z,98141.02
2019-05-11T11:01:29.630Z,98134.42
2019-05-11T11:03:58.815Z,98144.40
2019-05-11T11:06:28.288Z,98140.33
2019-05-11T11:08:57.863Z,98150.25
2019-05-11T11:11:27.834Z,98147.52
2019-05-11T11:13:58.522Z,98149.52
2019-05-11T11:16:36.965Z,98152.10
2019-05-11T11:18:58.946Z,98154.11
2019-05-11T11:21:28.076Z,98152.10
2019-05-11T11:23:58.751Z,98160.52
2019-05-11T11:26:28.486Z,98166.38
2019-05-11T11:28:58.112Z,98172.83
2019-05-11T11:31:28.796Z,98171.99
2019-05-11T11:33:58.545Z,98180.88
2019-05-11T11:36:28.424Z,98179.53
2019-05-11T11:38:58.364Z,98176.86
2019-05-11T11:41:29.884Z,98178.75
2019-05-11T11:43:58.626Z,98183.30
2019-05-11T11:46:27.860Z,98185.75
2019-05-11T11:48:58.113Z,98188.83
2019-05-11T11:51:28.654Z,98195.50
2019-05-11T11:53:58.481Z,98198.10
2019-05-11T11:56:29.229Z,98195.31
2019-05-11T11:58:58.186Z,98196.95
2019-05-11T12:01:28.097Z,98197.71
2019-05-11T12:03:58.087Z,98207.27
2019-05-11T12:06:28.315Z,98212.69
2019-05-11T12:08:58.475Z,98213.84
2019-05-11T12:11:27.988Z,98204.49
2019-05-11T12:13:57.955Z,98216.10
2019-05-11T12:16:28.193Z,98212.30
2019-05-11T12:18:57.809Z,98216.78
2019-05-11T12:24:08.263Z,98226.31
2019-05-11T12:26:38.847Z,98232.50
2019-05-11T12:29:08.250Z,98237.50
2019-05-11T12:31:37.976Z,98235.67
2019-05-11T12:34:08.729Z,98245.05
2019-05-11T12:36:38.696Z,98238.78
2019-05-11T12:39:08.652Z,98245.66
2019-05-11T12:41:38.716Z,98254.30
2019-05-11T12:44:08.380Z,98260.05
2019-05-11T12:46:39.582Z,98248.03
2019-05-11T12:49:08.350Z,98269.86
2019-05-11T12:51:38.307Z,98265.33
2019-05-11T12:54:08.230Z,98266.23
2019-05-11T12:56:38.263Z,98273.83
2019-05-11T12:59:08.252Z,98281.84
2019-05-11T13:01:38.094Z,98282.54
2019-05-11T13:04:08.959Z,98282.34
2019-05-11T13:06:38.564Z,98282.34
2019-05-11T13:09:08.393Z,98290.11
2019-05-11T13:11:37.996Z,98298.57
2019-05-11T13:14:08.053Z,98298.57
2019-05-11T13:16:37.900Z,98299.15
2019-05-11T13:19:08.505Z,98310.96
2019-05-11T13:21:38.271Z,98310.96
2019-05-11T13:24:08.384Z,98317.04
2019-05-11T13:26:38.080Z,98332.89
2019-05-11T13:29:07.765Z,98330.94
2019-05-11T13:31:38.398Z,98325.59
2019-05-11T13:34:08.340Z,98332.31
2019-05-11T13:36:38.143Z,98330.85
2019-05-11T13:39:08.862Z,98337.50
2019-05-11T13:41:38.386Z,98348.48
2019-05-11T13:44:08.037Z,98354.34
2019-05-11T13:46:38.862Z,98352.69
2019-05-11T13:49:08.610Z,98353.30
2019-05-11T13:51:38.835Z,98353.08
2019-05-11T13:54:08.046Z,98365.03
2019-05-11T13:56:38.017Z,98369.97
2019-05-11T13:59:10.398Z,98370.02
2019-05-11T14:01:39.236Z,98378.63
2019-05-11T14:04:08.726Z,98365.51
2019-05-11T14:06:37.888Z,98387.36
2019-05-11T14:09:08.516Z,98390.97
2019-05-11T14:11:39.053Z,98392.67
2019-05-11T14:14:08.223Z,98394.56
2019-05-11T14:16:37.875Z,98399.94
2019-05-11T14:19:08.649Z,98401.47
2019-05-11T14:21:38.471Z,98407.59
2019-05-11T14:24:08.059Z,98408.72
2019-05-11T14:26:38.573Z,98419.69
2019-05-11T14:29:08.527Z,98420.29
2019-05-11T14:31:38.588Z,98423.55
2019-05-11T14:34:08.792Z,98432.27
2019-05-11T14:36:38.709Z,98465.21
2019-05-11T14:39:08.690Z,98443.34
2019-05-11T14:41:38.308Z,98441.02
2019-05-11T14:44:08.890Z,98446.23
2019-05-11T14:46:38.413Z,98457.84
2019-05-11T14:49:07.923Z,98464.60
2019-05-11T14:51:39.117Z,98464.60
2019-05-11T14:54:08.333Z,98460.80
2019-05-11T14:56:38.098Z,98470.83
2019-05-11T14:59:09.024Z,98512.09
2019-05-11T15:01:38.128Z,98470.84
2019-05-11T15:04:09.083Z,98476.81
2019-05-11T15:06:38.608Z,98479.69
2019-05-11T15:09:08.195Z,98483.17
2019-05-11T15:11:38.814Z,98489.72
2019-05-11T15:14:08.227Z,98483.67
2019-05-11T15:16:38.446Z,98496.92
2019-05-11T15:19:08.055Z,98506.60
2019-05-11T15:21:38.746Z,98512.91
2019-05-11T15:24:09.114Z,98524.63
2019-05-11T15:26:38.259Z,98519.17
2019-05-11T15:29:08.080Z,98523.37
2019-05-11T15:31:38.041Z,98521.48
2019-05-11T15:34:08.551Z,98523.58
2019-05-11T15:36:38.731Z,98528.35
2019-05-11T15:39:08.153Z,98538.06
2019-05-11T15:41:38.869Z,98538.06
2019-05-11T15:44:11.352Z,98550.33
2019-05-11T15:46:38.928Z,98551.59
2019-05-11T15:49:08.802Z,98554.32
2019-05-11T15:51:41.086Z,98567.43
2019-05-11T15:54:08.487Z,98563.75
2019-05-11T15:56:38.460Z,98573.70
2019-05-11T15:59:08.696Z,98573.70
2019-05-11T16:01:41.063Z,98555.86
2019-05-11T16:04:09.095Z,98555.86
2019-05-11T16:06:37.931Z,98561.56
2019-05-11T16:09:08.538Z,98578.16
2019-05-11T16:11:38.735Z,98578.16
2019-05-11T16:14:08.903Z,98586.04
2019-05-11T16:16:39.105Z,98598.76
2019-05-11T16:19:14.389Z,98599.18
2019-05-11T16:21:38.560Z,98607.35
2019-05-11T16:24:27.759Z,98614.25
2019-05-11T16:26:58.202Z,98623.51
2019-05-11T16:29:28.019Z,98654.77
2019-05-11T16:31:57.836Z,98654.77
2019-05-11T16:34:27.798Z,98674.47
2019-05-11T16:36:56.962Z,98670.20
2019-05-11T16:39:27.908Z,98670.20
2019-05-11T16:41:57.823Z,98679.31
2019-05-11T16:44:27.171Z,98627.30
2019-05-11T16:46:58.254Z,98653.44
2019-05-11T16:49:31.744Z,98662.13
2019-05-11T16:51:56.895Z,98667.66
2019-05-11T16:54:27.909Z,98660.28
2019-05-11T16:56:57.898Z,98672.98
2019-05-11T16:59:26.890Z,98672.98
2019-05-11T17:01:55.624Z,98690.92
2019-05-11T17:04:26.622Z,98707.41
2019-05-11T17:06:54.999Z,98711.19
2019-05-11T17:09:23.825Z,98715.75
2019-05-11T17:11:52.583Z,98718.88
2019-05-11T17:14:21.327Z,98719.95
2019-05-11T17:16:50.157Z,98726.41
2019-05-11T17:19:18.911Z,98730.40
2019-05-11T17:21:47.659Z,98739.55
2019-05-11T17:24:16.445Z,98758.59
2019-05-11T17:26:47.866Z,98764.95
2019-05-11T17:29:18.578Z,98764.95
2019-05-11T17:31:48.504Z,98773.95
2019-05-11T17:34:20.226Z,98768.67
2019-05-11T17:36:47.810Z,98768.67
2019-05-11T17:39:18.694Z,98782.88
2019-05-11T17:41:47.950Z,98788.81
2019-05-11T17:44:18.511Z,98789.89
2019-05-11T17:46:47.625Z,98791.11
2019-05-11T17:49:18.396Z,98801.11
2019-05-11T17:51:48.444Z,98809.04
2019-05-11T17:54:17.926Z,98832.96
2019-05-11T17:56:48.378Z,98823.77
2019-05-11T17:59:19.509Z,98823.77
2019-05-11T18:01:47.721Z,98833.34
2019-05-11T18:04:18.287Z,98842.14
2019-05-11T18:06:47.562Z,98842.14
2019-05-11T18:09:18.213Z,98848.80
2019-05-11T18:11:48.250Z,98848.80
2019-05-11T18:14:17.177Z,98854.58
2019-05-11T18:16:48.032Z,98857.89
2019-05-11T18:19:18.390Z,98857.89
2019-05-11T18:21:48.758Z,98868.67
2019-05-11T18:24:17.987Z,98872.79
2019-05-11T18:26:48.783Z,98871.94
2019-05-11T18:29:18.220Z,98865.55
2019-05-11T18:31:48.638Z,98865.55
2019-05-11T18:34:17.974Z,98864.67
2019-05-11T18:36:48.537Z,98877.14
2019-05-11T18:39:18.648Z,98884.14
2019-05-11T18:41:48.407Z,98886.68
2019-05-11T18:44:18.778Z,98882.08
2019-05-11T18:46:48.055Z,98885.48
2019-05-11T18:49:17.960Z,98882.11
2019-05-11T18:51:48.361Z,98888.15
2019-05-11T18:54:19.202Z,98889.13
2019-05-11T18:56:48.928Z,98885.84
2019-05-11T18:59:19.584Z,98885.84
2019-05-11T19:01:48.597Z,98883.66
2019-05-11T19:04:18.365Z,98881.98
2019-05-11T19:06:48.460Z,98883.91
2019-05-11T19:09:18.172Z,98883.33
2019-05-11T19:11:48.852Z,98887.66
2019-05-11T19:14:18.009Z,98891.91
2019-05-11T19:16:49.028Z,98899.88
2019-05-11T19:19:18.296Z,98901.47
2019-05-11T19:21:48.164Z,98915.12
2019-05-11T19:24:19.027Z,98921.55
2019-05-11T19:26:48.107Z,98926.42
2019-05-11T19:29:18.385Z,98926.42
2019-05-11T19:31:47.730Z,98941.14
2019-05-11T19:34:17.778Z,98933.80
2019-05-11T19:36:48.519Z,98933.80
2019-05-11T19:39:19.340Z,98948.52
2019-05-11T19:41:48.389Z,98950.24
2019-05-11T19:44:18.759Z,98950.24
2019-05-11T19:46:47.813Z,98955.03
2019-05-11T19:49:19.003Z,98964.25
2019-05-11T19:51:48.721Z,98964.25
2019-05-11T19:54:18.590Z,98968.85
2019-05-11T19:56:47.982Z,98973.33
2019-05-11T19:59:17.135Z,98973.33
2019-05-11T20:01:45.897Z,98968.48
2019-05-11T20:04:15.086Z,98982.38
2019-05-11T20:06:43.919Z,98976.84
2019-05-11T20:09:12.732Z,98990.39
2019-05-11T20:11:44.456Z,99011.42
2019-05-11T20:14:13.484Z,98997.86
2019-05-11T20:16:42.621Z,99003.45
2019-05-11T20:19:14.097Z,99007.32
2019-05-11T20:21:42.300Z,99005.87
2019-05-11T20:24:11.422Z,99005.75
2019-05-11T20:26:40.166Z,99011.90
2019-05-11T20:29:09.136Z,99021.10
2019-05-11T20:31:37.957Z,99019.05
2019-05-11T20:34:07.049Z,99026.06
2019-05-11T20:36:36.083Z,99033.20
2019-05-11T20:39:07.881Z,99034.77
2019-05-11T20:41:38.507Z,99036.09
2019-05-11T20:44:08.670Z,99048.91
2019-05-11T20:46:38.335Z,99048.31
2019-05-11T20:49:07.164Z,99055.08
2019-05-11T20:51:37.172Z,99056.40
2019-05-11T20:54:08.619Z,99062.33
2019-05-11T20:56:38.662Z,99061.48
2019-05-11T20:59:07.829Z,99055.05
2019-05-11T21:01:38.667Z,99057.34
2019-05-11T21:04:08.456Z,99056.26
2019-05-11T21:06:37.356Z,99059.16
2019-05-11T21:09:07.261Z,99062.19
2019-05-11T21:11:36.014Z,99067.14
2019-05-11T21:14:05.110Z,99067.14
2019-05-11T21:16:34.022Z,99065.84
2019-05-11T21:19:03.182Z,99074.19
2019-05-11T21:21:46.026Z,99076.23
2019-05-11T21:24:02.403Z,99074.19
2019-05-11T21:26:31.324Z,99077.92
2019-05-11T21:29:00.146Z,99087.39
2019-05-11T21:31:29.269Z,99089.20
2019-05-11T21:33:57.972Z,99092.95
2019-05-11T21:36:28.346Z,99103.20
2019-05-11T21:38:58.793Z,99109.37
2019-05-11T21:41:30.717Z,99123.03
2019-05-11T21:43:58.628Z,99132.67
2019-05-11T21:46:28.400Z,99132.67
2019-05-11T21:48:58.269Z,99144.80
2019-05-11T21:51:28.556Z,99149.03
2019-05-11T21:53:57.895Z,99153.09
2019-05-11T21:56:28.841Z,99150.55
2019-05-11T21:58:57.342Z,99157.44
2019-05-11T22:01:28.165Z,99164.28
2019-05-11T22:03:56.570Z,99170.07
2019-05-11T22:06:25.548Z,99177.19
2019-05-11T22:08:54.342Z,99177.31
2019-05-11T22:11:23.073Z,99178.21
2019-05-11T22:13:51.903Z,99188.96
2019-05-11T22:16:20.697Z,99198.13
2019-05-11T22:18:49.623Z,99212.16
2019-05-11T22:21:18.852Z,99200.17
2019-05-11T22:23:50.635Z,99212.08
2019-05-11T22:26:18.354Z,99211.20
2019-05-11T22:28:48.133Z,99220.50
2019-05-11T22:31:18.312Z,99217.50
2019-05-11T22:33:48.049Z,99222.23
2019-05-11T22:36:16.970Z,99230.17
2019-05-11T22:38:48.149Z,99230.05
2019-05-11T22:41:18.041Z,99225.33
2019-05-11T22:43:48.527Z,99233.16
2019-05-11T22:46:17.798Z,99227.52
2019-05-11T22:48:48.898Z,99226.23
2019-05-11T22:51:18.366Z,99225.38
2019-05-11T22:53:50.194Z,99233.66
2019-05-11T22:56:19.931Z,99238.07
2019-05-11T22:58:49.917Z,99239.55
2019-05-11T23:01:18.788Z,99240.81
2019-05-11T23:03:47.682Z,99250.14
2019-05-11T23:06:18.051Z,99252.98
2019-05-11T23:08:48.313Z,99261.42
2019-05-11T23:11:18.057Z,99266.69
2019-05-11T23:13:47.938Z,99272.00
2019-05-11T23:16:17.920Z,99267.70
2019-05-11T23:18:48.099Z,99276.52
2019-05-11T23:21:16.904Z,99289.60
2019-05-11T23:23:47.770Z,99290.08
2019-05-11T23:26:17.797Z,99289.12
2019-05-11T23:28:48.655Z,99297.56
2019-05-11T23:31:17.079Z,99296.61
2019-05-11T23:33:46.019Z,99300.91
2019-05-11T23:36:15.011Z,99297.80
2019-05-11T23:38:43.922Z,99306.13
2019-05-11T23:41:24.331Z,99313.48
2019-05-11T23:43:43.335Z,99314.36
2019-05-11T23:46:12.328Z,99319.44
2019-05-11T23:48:41.152Z,99327.03
2019-05-11T23:51:10.166Z,99330.55
2019-05-11T23:53:39.027Z,99335.36
2019-05-11T23:56:08.084Z,99334.94
2019-05-11T23:58:39.029Z,99331.44
